createdAt,value
2023-02-17T00:00:11.539Z,102582.66
2023-02-17T00:02:38.658Z,102579.56
2023-02-17T00:05:19.547Z,102585.66
2023-02-17T00:07:51.305Z,102586.41
2023-02-17T00:10:45.701Z,102592.03
2023-02-17T00:13:25.997Z,102583.44
2023-02-17T00:15:56.199Z,102589.03
2023-02-17T00:18:25.939Z,102590.81
2023-02-17T00:23:38.882Z,102587.31
2023-02-17T00:26:09.587Z,102589.34
2023-02-17T00:28:42.724Z,102585.41
2023-02-17T00:31:22.216Z,102584.72
2023-02-17T00:33:55.952Z,102593.38
2023-02-17T00:36:25.736Z,102597.56
2023-02-17T00:39:00.887Z,102604.47
2023-02-17T00:41:33.871Z,102608.34
2023-02-17T00:44:00.729Z,102619.63
2023-02-17T00:46:27.894Z,102606.66
2023-02-17T00:48:54.968Z,102604.06
2023-02-17T00:51:22.442Z,102614.03
2023-02-17T00:53:56.730Z,102610.75
2023-02-17T00:56:31.201Z,102616.34
2023-02-17T00:58:58.011Z,102613.53
2023-02-17T01:01:35.220Z,102612.88
2023-02-17T01:04:13.470Z,102619.44
2023-02-17T01:06:41.187Z,102602.28
2023-02-17T01:09:38.334Z,102601.34
2023-02-17T01:12:07.098Z,102611.50
2023-02-17T01:14:48.421Z,102603.31
2023-02-17T01:17:20.745Z,102595.66
2023-02-17T01:19:53.171Z,102599.91
2023-02-17T01:22:22.452Z,102590.50
2023-02-17T01:25:11.500Z,102586.13
2023-02-17T01:27:42.103Z,102589.41
2023-02-17T01:30:09.292Z,102595.53
2023-02-17T01:32:42.303Z,102601.66
2023-02-17T01:35:09.143Z,102592.47
2023-02-17T01:37:41.477Z,102595.97
2023-02-17T01:40:10.670Z,102598.00
2023-02-17T01:42:40.540Z,102594.06
2023-02-17T01:45:39.837Z,102590.31
2023-02-17T01:48:12.166Z,102588.22
2023-02-17T01:50:58.160Z,102572.13
2023-02-17T01:53:47.921Z,102573.91
2023-02-17T01:56:16.048Z,102562.97
2023-02-17T01:59:08.535Z,102562.97
2023-02-17T02:01:39.723Z,102561.50
2023-02-17T02:04:07.424Z,102556.59
2023-02-17T02:06:43.885Z,102554.53
2023-02-17T02:09:23.656Z,102554.66
2023-02-17T02:11:51.914Z,102551.28
2023-02-17T02:14:50.361Z,102555.66
2023-02-17T02:17:40.839Z,102553.31
2023-02-17T02:20:50.029Z,102560.63
2023-02-17T02:23:50.053Z,102554.28
2023-02-17T02:26:58.750Z,102558.09
2023-02-17T02:29:37.026Z,102562.41
2023-02-17T02:32:29.088Z,102558.81
2023-02-17T02:35:29.828Z,102570.94
2023-02-17T02:38:31.404Z,102564.97
2023-02-17T02:41:31.683Z,102565.59
2023-02-17T02:43:58.526Z,102566.06
2023-02-17T02:46:26.517Z,102566.81
2023-02-17T02:49:08.255Z,102562.56
2023-02-17T02:51:42.766Z,102556.84
2023-02-17T02:54:21.594Z,102559.41
2023-02-17T02:57:07.555Z,102562.75
2023-02-17T02:59:52.701Z,102557.56
2023-02-17T03:02:32.858Z,102558.75
2023-02-17T03:05:39.557Z,102558.50
2023-02-17T03:08:23.800Z,102566.16
2023-02-17T03:10:53.292Z,102564.84
2023-02-17T03:13:31.330Z,102562.13
2023-02-17T03:16:00.887Z,102566.03
2023-02-17T03:18:36.049Z,102561.63
2023-02-17T03:21:10.980Z,102565.13
2023-02-17T03:26:33.741Z,102565.16
2023-02-17T03:29:21.381Z,102573.16
2023-02-17T03:31:55.415Z,102564.63
2023-02-17T03:34:23.372Z,102563.63
2023-02-17T03:36:50.086Z,102567.38
2023-02-17T03:39:37.256Z,102564.72
2023-02-17T03:42:17.006Z,102568.97
2023-02-17T03:44:57.016Z,102568.09
2023-02-17T03:47:31.749Z,102568.69
2023-02-17T03:50:09.387Z,102566.16
2023-02-17T03:52:50.387Z,102568.13
2023-02-17T03:55:28.004Z,102580.06
2023-02-17T04:03:53.273Z,102573.19
2023-02-17T04:06:33.699Z,102575.97
2023-02-17T04:09:23.167Z,102569.44
2023-02-17T04:12:00.036Z,102575.47
2023-02-17T04:14:31.231Z,102571.94
2023-02-17T04:17:05.242Z,102569.50
2023-02-17T04:19:43.148Z,102567.75
2023-02-17T04:22:12.874Z,102572.28
2023-02-17T04:24:42.790Z,102571.44
2023-02-17T04:27:10.614Z,102570.72
2023-02-17T04:29:37.524Z,102570.78
2023-02-17T04:32:19.236Z,102577.75
2023-02-17T04:34:52.930Z,102577.72
2023-02-17T04:37:19.805Z,102584.81
2023-02-17T04:39:50.093Z,102587.41
2023-02-17T04:42:16.881Z,102591.78
2023-02-17T04:44:44.664Z,102589.09
2023-02-17T04:47:20.669Z,102596.13
2023-02-17T04:49:47.429Z,102593.53
2023-02-17T04:52:14.220Z,102594.22
2023-02-17T04:54:50.233Z,102602.84
2023-02-17T04:57:18.707Z,102592.50
2023-02-17T04:59:48.666Z,102603.06
2023-02-17T05:02:31.837Z,102599.56
2023-02-17T05:04:58.684Z,102603.16
2023-02-17T05:07:25.501Z,102608.19
2023-02-17T05:10:02.226Z,102596.78
2023-02-17T05:12:38.359Z,102607.47
2023-02-17T05:15:05.656Z,102604.81
2023-02-17T05:17:40.085Z,102606.69
2023-02-17T05:20:07.585Z,102603.84
2023-02-17T05:22:35.653Z,102604.84
2023-02-17T05:25:13.046Z,102606.63
2023-02-17T05:30:29.188Z,102605.78
2023-02-17T05:33:14.526Z,102608.38
2023-02-17T05:35:44.663Z,102606.69
2023-02-17T05:41:12.263Z,102602.41
2023-02-17T05:43:39.189Z,102605.00
2023-02-17T05:46:22.525Z,102600.63
2023-02-17T05:48:49.448Z,102599.81
2023-02-17T05:51:22.255Z,102603.34
2023-02-17T05:53:59.400Z,102599.00
2023-02-17T05:56:56.412Z,102601.53
2023-02-17T05:59:39.281Z,102605.13
2023-02-17T06:02:06.187Z,102603.28
2023-02-17T06:04:48.699Z,102609.50
2023-02-17T06:07:15.644Z,102611.38
2023-02-17T06:09:47.006Z,102619.16
2023-02-17T06:12:27.538Z,102616.41
2023-02-17T06:15:01.461Z,102617.44
2023-02-17T06:17:30.753Z,102612.22
2023-02-17T06:19:58.322Z,102614.75
2023-02-17T06:22:25.171Z,102615.63
2023-02-17T06:24:51.946Z,102614.91
2023-02-17T06:27:25.198Z,102611.53
2023-02-17T06:29:55.067Z,102624.69
2023-02-17T06:32:22.101Z,102621.16
2023-02-17T06:34:54.801Z,102621.19
2023-02-17T06:37:36.887Z,102619.47
2023-02-17T06:40:13.224Z,102622.72
2023-02-17T06:42:46.846Z,102628.97
2023-02-17T06:45:21.518Z,102634.25
2023-02-17T06:47:58.586Z,102634.19
2023-02-17T06:50:42.071Z,102639.50
2023-02-17T06:53:11.393Z,102637.72
2023-02-17T06:55:40.992Z,102633.41
2023-02-17T06:58:16.763Z,102635.25
2023-02-17T07:00:48.307Z,102636.19
2023-02-17T07:03:15.058Z,102644.06
2023-02-17T07:05:55.016Z,102647.59
2023-02-17T07:08:25.987Z,102654.63
2023-02-17T07:13:48.830Z,102652.69
2023-02-17T07:16:26.061Z,102663.38
2023-02-17T07:18:58.767Z,102660.59
2023-02-17T07:21:37.239Z,102669.94
2023-02-17T07:24:10.488Z,102679.81
2023-02-17T07:26:38.010Z,102671.97
2023-02-17T07:29:06.111Z,102672.16
2023-02-17T07:31:42.177Z,102670.31
2023-02-17T07:34:21.658Z,102673.72
2023-02-17T07:37:06.023Z,102675.41
2023-02-17T07:42:26.483Z,102672.84
2023-02-17T07:45:22.484Z,102673.66
2023-02-17T07:47:57.884Z,102673.84
2023-02-17T07:50:27.682Z,102683.50
2023-02-17T07:53:00.718Z,102677.16
2023-02-17T07:55:40.180Z,102683.38
2023-02-17T07:58:18.457Z,102679.97
2023-02-17T08:00:48.204Z,102682.72
2023-02-17T08:03:21.970Z,102684.47
2023-02-17T08:05:55.704Z,102681.81
2023-02-17T08:08:47.366Z,102679.16
2023-02-17T08:11:43.941Z,102673.16
2023-02-17T08:17:20.820Z,102670.66
2023-02-17T08:20:08.772Z,102672.31
2023-02-17T08:22:36.350Z,102663.53
2023-02-17T08:25:31.621Z,102667.13
2023-02-17T08:27:58.577Z,102664.50
2023-02-17T08:30:26.395Z,102668.94
2023-02-17T08:32:57.878Z,102669.03
2023-02-17T08:35:32.570Z,102664.63
2023-02-17T08:38:04.431Z,102664.59
2023-02-17T08:40:40.136Z,102661.91
2023-02-17T08:43:32.129Z,102663.75
2023-02-17T08:46:00.960Z,102660.22
2023-02-17T08:48:45.511Z,102664.66
2023-02-17T08:51:49.168Z,102670.78
2023-02-17T08:54:25.013Z,102672.63
2023-02-17T08:56:54.073Z,102669.09
2023-02-17T08:59:36.871Z,102674.41
2023-02-17T09:02:05.482Z,102669.13
2023-02-17T09:04:39.391Z,102673.53
2023-02-17T09:07:22.227Z,102671.81
2023-02-17T09:09:58.417Z,102672.66
2023-02-17T09:12:26.783Z,102668.31
2023-02-17T09:15:22.474Z,102675.38
2023-02-17T09:17:50.007Z,102673.66
2023-02-17T09:20:28.815Z,102668.41
2023-02-17T09:22:58.429Z,102668.41
2023-02-17T09:25:51.339Z,102678.97
2023-02-17T09:28:18.039Z,102666.66
2023-02-17T09:30:51.974Z,102669.31
2023-02-17T09:33:21.942Z,102658.78
2023-02-17T09:35:49.691Z,102668.47
2023-02-17T09:38:44.323Z,102657.09
2023-02-17T09:41:38.554Z,102660.59
2023-02-17T09:47:45.659Z,102658.81
2023-02-17T09:50:34.840Z,102665.88
2023-02-17T09:53:11.324Z,102664.09
2023-02-17T09:55:59.556Z,102665.84
2023-02-17T09:58:54.409Z,102659.66
2023-02-17T10:01:26.181Z,102661.44
2023-02-17T10:04:21.383Z,102657.03
2023-02-17T10:07:23.052Z,102657.03
2023-02-17T10:10:19.941Z,102667.56
2023-02-17T10:13:01.832Z,102672.81
2023-02-17T10:15:40.037Z,102672.00
2023-02-17T10:18:56.877Z,102665.78
2023-02-17T10:21:42.479Z,102668.31
2023-02-17T10:24:10.569Z,102668.34
2023-02-17T10:27:36.736Z,102668.28
2023-02-17T10:30:39.679Z,102669.09
2023-02-17T10:33:25.221Z,102666.50
2023-02-17T10:35:53.396Z,102663.75
2023-02-17T10:38:56.120Z,102667.31
2023-02-17T10:41:39.890Z,102661.91
2023-02-17T10:44:20.243Z,102660.09
2023-02-17T10:47:10.240Z,102653.81
2023-02-17T10:49:46.675Z,102651.25
2023-02-17T10:52:18.318Z,102651.25
2023-02-17T10:55:23.116Z,102648.47
2023-02-17T10:58:08.203Z,102645.72
2023-02-17T11:00:43.951Z,102643.94
2023-02-17T11:03:21.951Z,102644.97
2023-02-17T11:05:55.265Z,102639.63
2023-02-17T11:08:41.572Z,102641.41
2023-02-17T11:11:48.214Z,102635.34
2023-02-17T11:14:41.812Z,102639.97
2023-02-17T11:17:43.598Z,102628.59
2023-02-17T11:20:13.732Z,102626.84
2023-02-17T11:23:15.699Z,102629.50
2023-02-17T11:25:55.026Z,102616.28
2023-02-17T11:28:24.968Z,102615.22
2023-02-17T11:30:57.908Z,102619.72
2023-02-17T11:33:51.392Z,102611.03
2023-02-17T11:36:32.819Z,102610.06
2023-02-17T11:39:02.360Z,102613.59
2023-02-17T11:41:59.620Z,102606.59
2023-02-17T11:44:35.409Z,102603.19
2023-02-17T11:47:45.731Z,102590.75
2023-02-17T11:50:57.688Z,102586.44
2023-02-17T11:54:17.136Z,102589.91
2023-02-17T11:57:19.440Z,102584.59
2023-02-17T12:00:44.211Z,102581.13
2023-02-17T12:03:56.002Z,102564.44
2023-02-17T12:07:15.583Z,102566.28
2023-02-17T12:10:15.699Z,102556.59
2023-02-17T12:13:12.528Z,102546.78
2023-02-17T12:16:01.920Z,102548.34
2023-02-17T12:19:15.989Z,102539.47
2023-02-17T12:22:16.793Z,102540.09
2023-02-17T12:25:32.726Z,102535.84
2023-02-17T12:28:52.689Z,102530.72
2023-02-17T12:31:46.006Z,102529.91
2023-02-17T12:34:52.619Z,102522.94
2023-02-17T12:37:47.456Z,102520.28
2023-02-17T12:40:39.694Z,102515.69
2023-02-17T12:43:55.732Z,102515.53
2023-02-17T12:47:01.639Z,102504.91
2023-02-17T12:49:57.485Z,102504.03
2023-02-17T12:52:46.086Z,102505.53
2023-02-17T12:55:27.476Z,102497.59
2023-02-17T12:58:21.675Z,102499.66
2023-02-17T13:01:28.185Z,102489.16
2023-02-17T13:04:17.210Z,102494.22
2023-02-17T13:07:21.668Z,102487.25
2023-02-17T13:09:57.759Z,102479.47
2023-02-17T13:12:33.931Z,102471.56
2023-02-17T13:15:30.544Z,102463.69
2023-02-17T13:18:54.327Z,102467.06
2023-02-17T13:21:50.299Z,102466.97
2023-02-17T13:25:03.483Z,102468.59
2023-02-17T13:27:38.590Z,102465.34
2023-02-17T13:30:18.110Z,102469.00
2023-02-17T13:33:07.098Z,102473.41
2023-02-17T13:35:49.584Z,102467.25
2023-02-17T13:38:32.921Z,102468.16
2023-02-17T13:41:09.372Z,102466.44
2023-02-17T13:43:53.130Z,102461.19
2023-02-17T13:46:27.051Z,102467.41
2023-02-17T13:49:30.028Z,102462.13
2023-02-17T13:52:28.092Z,102453.19
2023-02-17T13:55:21.940Z,102455.00
2023-02-17T13:58:29.588Z,102452.31
2023-02-17T14:01:33.218Z,102456.63
2023-02-17T14:04:31.928Z,102449.59
2023-02-17T14:07:07.201Z,102448.75
2023-02-17T14:09:47.122Z,102454.19
2023-02-17T14:12:37.510Z,102452.50
2023-02-17T14:15:19.115Z,102449.88
2023-02-17T14:17:50.288Z,102448.00
2023-02-17T14:20:39.362Z,102449.88
2023-02-17T14:23:21.415Z,102452.47
2023-02-17T14:26:05.520Z,102436.59
2023-02-17T14:29:11.648Z,102439.28
2023-02-17T14:31:52.084Z,102440.16
2023-02-17T14:34:25.134Z,102438.53
2023-02-17T14:37:42.819Z,102434.97
2023-02-17T14:40:42.970Z,102441.09
2023-02-17T14:43:11.852Z,102431.41
2023-02-17T14:45:51.457Z,102421.75
2023-02-17T14:48:30.693Z,102430.56
2023-02-17T14:50:58.810Z,102430.59
2023-02-17T14:53:49.939Z,102435.84
2023-02-17T14:56:38.840Z,102426.03
2023-02-17T14:59:11.753Z,102428.69
2023-02-17T15:01:47.772Z,102423.38
2023-02-17T15:04:18.187Z,102424.28
2023-02-17T15:06:57.998Z,102435.81
2023-02-17T15:09:44.554Z,102424.31
2023-02-17T15:12:23.295Z,102418.13
2023-02-17T15:14:56.028Z,102415.50
2023-02-17T15:17:33.305Z,102412.00
2023-02-17T15:20:00.690Z,102412.13
2023-02-17T15:22:29.051Z,102420.03
2023-02-17T15:25:01.956Z,102421.75
2023-02-17T15:27:56.689Z,102420.81
2023-02-17T15:30:44.595Z,102418.19
2023-02-17T15:33:33.971Z,102417.41
2023-02-17T15:36:17.798Z,102420.94
2023-02-17T15:38:58.551Z,102427.13
2023-02-17T15:41:31.700Z,102427.09
2023-02-17T15:44:02.104Z,102419.13
2023-02-17T15:46:45.536Z,102419.09
2023-02-17T15:49:46.516Z,102420.94
2023-02-17T15:52:28.757Z,102420.09
2023-02-17T15:55:07.009Z,102427.16
2023-02-17T15:57:59.954Z,102420.06
2023-02-17T16:00:33.070Z,102425.44
2023-02-17T16:03:00.581Z,102424.56
2023-02-17T16:05:29.443Z,102420.16
2023-02-17T16:07:59.616Z,102414.91
2023-02-17T16:10:29.060Z,102414.91
2023-02-17T16:12:58.536Z,102413.91
2023-02-17T16:15:29.753Z,102412.19
2023-02-17T16:18:01.092Z,102408.69
2023-02-17T16:20:35.181Z,102410.44
2023-02-17T16:23:23.087Z,102406.09
2023-02-17T16:25:54.188Z,102408.72
2023-02-17T16:28:22.333Z,102412.25
2023-02-17T16:30:51.249Z,102408.78
2023-02-17T16:33:41.072Z,102415.84
2023-02-17T16:36:39.349Z,102422.91
2023-02-17T16:42:34.362Z,102428.25
2023-02-17T16:45:01.405Z,102433.50
2023-02-17T16:47:30.110Z,102428.19
2023-02-17T16:49:56.958Z,102427.31
2023-02-17T16:52:39.757Z,102431.75
2023-02-17T16:55:07.029Z,102428.19
2023-02-17T16:57:57.513Z,102435.28
2023-02-17T17:03:09.626Z,102445.00
2023-02-17T17:05:50.155Z,102445.88
2023-02-17T17:08:40.196Z,102452.91
2023-02-17T17:13:48.041Z,102463.53
2023-02-17T17:16:21.391Z,102462.66
2023-02-17T17:19:12.101Z,102460.00
2023-02-17T17:21:50.430Z,102467.94
2023-02-17T17:24:27.252Z,102474.06
2023-02-17T17:26:59.723Z,102465.25
2023-02-17T17:29:35.068Z,102473.19
2023-02-17T17:32:10.558Z,102468.84
2023-02-17T17:34:37.441Z,102470.56
2023-02-17T17:37:16.036Z,102468.84
2023-02-17T17:39:45.530Z,102476.75
2023-02-17T17:42:16.462Z,102477.63
2023-02-17T17:44:52.611Z,102479.44
2023-02-17T17:47:30.125Z,102487.31
2023-02-17T17:50:05.279Z,102490.84
2023-02-17T17:52:35.637Z,102490.81
2023-02-17T17:55:20.975Z,102499.63
2023-02-17T17:57:58.616Z,102497.88
2023-02-17T18:00:38.153Z,102491.72
2023-02-17T18:03:06.493Z,102491.72
2023-02-17T18:05:59.621Z,102497.88
2023-02-17T18:08:35.749Z,102496.97
2023-02-17T18:11:12.531Z,102502.25
2023-02-17T18:13:44.488Z,102489.97
2023-02-17T18:16:33.409Z,102496.97
2023-02-17T18:19:11.174Z,102490.84
2023-02-17T18:24:34.577Z,102503.13
2023-02-17T18:27:09.488Z,102511.94
2023-02-17T18:29:44.671Z,102508.38
2023-02-17T18:35:04.796Z,102528.63
2023-02-17T18:38:07.183Z,102520.72
2023-02-17T18:40:52.242Z,102518.09
2023-02-17T18:43:37.149Z,102526.88
2023-02-17T18:46:11.896Z,102529.53
2023-02-17T18:48:58.967Z,102526.00
2023-02-17T18:51:38.619Z,102514.56
2023-02-17T18:54:14.325Z,102523.34
2023-02-17T18:56:49.458Z,102515.47
2023-02-17T18:59:26.988Z,102526.00
2023-02-17T19:02:10.520Z,102520.72
2023-02-17T19:05:06.375Z,102520.72
2023-02-17T19:07:44.386Z,102518.06
2023-02-17T19:10:33.928Z,102513.69
2023-02-17T19:13:19.769Z,102508.44
2023-02-17T19:16:00.709Z,102511.06
2023-02-17T19:19:07.276Z,102512.81
2023-02-17T19:21:51.105Z,102511.91
2023-02-17T19:24:35.317Z,102504.88
2023-02-17T19:27:25.838Z,102518.03
2023-02-17T19:30:17.591Z,102524.16
2023-02-17T19:32:59.601Z,102511.91
2023-02-17T19:35:41.992Z,102519.78
2023-02-17T19:38:24.607Z,102522.41
2023-02-17T19:44:05.100Z,102524.16
2023-02-17T19:47:02.803Z,102525.09
2023-02-17T19:49:44.254Z,102535.59
2023-02-17T19:52:27.672Z,102531.25
2023-02-17T19:55:17.445Z,102520.75
2023-02-17T19:58:02.891Z,102526.00
2023-02-17T20:00:37.817Z,102523.34
2023-02-17T20:03:06.280Z,102531.25
2023-02-17T20:06:03.426Z,102524.25
2023-02-17T20:08:43.607Z,102529.50
2023-02-17T20:11:25.219Z,102533.03
2023-02-17T20:13:53.794Z,102529.50
2023-02-17T20:16:27.399Z,102528.63
2023-02-17T20:18:57.475Z,102530.41
2023-02-17T20:21:26.870Z,102535.66
2023-02-17T20:23:54.068Z,102537.41
2023-02-17T20:26:31.533Z,102542.69
2023-02-17T20:29:00.614Z,102545.34
2023-02-17T20:31:28.605Z,102543.59
2023-02-17T20:33:56.199Z,102554.13
2023-02-17T20:36:25.639Z,102547.97
2023-02-17T20:38:52.514Z,102547.09
2023-02-17T20:41:25.331Z,102543.59
2023-02-17T20:44:06.872Z,102539.19
2023-02-17T20:46:39.684Z,102549.72
2023-02-17T20:49:10.616Z,102542.72
2023-02-17T20:51:49.907Z,102544.47
2023-02-17T20:54:26.568Z,102546.22
2023-02-17T20:56:57.108Z,102535.69
2023-02-17T20:59:25.171Z,102537.44
2023-02-17T21:02:09.544Z,102537.44
2023-02-17T21:04:53.443Z,102524.22
2023-02-17T21:07:32.559Z,102515.44
2023-02-17T21:10:41.112Z,102516.31
2023-02-17T21:13:12.119Z,102521.59
2023-02-17T21:15:59.180Z,102520.72
2023-02-17T21:18:26.570Z,102520.72
2023-02-17T21:21:02.472Z,102511.94
2023-02-17T21:23:51.139Z,102507.53
2023-02-17T21:26:24.559Z,102511.03
2023-02-17T21:29:21.282Z,102509.28
2023-02-17T21:31:50.330Z,102514.56
2023-02-17T21:34:27.585Z,102512.81
2023-02-17T21:37:08.488Z,102511.06
2023-02-17T21:39:43.455Z,102500.50
2023-02-17T21:42:13.723Z,102495.25
2023-02-17T21:44:57.272Z,102499.63
2023-02-17T21:47:27.677Z,102504.00
2023-02-17T21:49:55.268Z,102493.47
2023-02-17T21:52:29.719Z,102488.19
2023-02-17T21:55:04.807Z,102504.00
2023-02-17T21:57:34.900Z,102501.38
2023-02-17T22:00:01.863Z,102504.00
2023-02-17T22:02:28.731Z,102510.16
2023-02-17T22:05:04.252Z,102510.19
2023-02-17T22:07:31.209Z,102516.34
2023-02-17T22:10:02.655Z,102522.47
2023-02-17T22:12:30.838Z,102521.63
2023-02-17T22:14:58.277Z,102519.84
2023-02-17T22:17:43.818Z,102521.63
2023-02-17T22:20:19.865Z,102511.06
2023-02-17T22:23:13.853Z,102511.06
2023-02-17T22:25:43.312Z,102511.94
2023-02-17T22:28:15.515Z,102511.06
2023-02-17T22:30:56.364Z,102515.44
2023-02-17T22:33:26.484Z,102527.75
2023-02-17T22:36:12.212Z,102514.56
2023-02-17T22:38:42.330Z,102525.09
2023-02-17T22:41:13.041Z,102533.91
2023-02-17T22:43:42.049Z,102533.88
2023-02-17T22:46:20.989Z,102525.09
2023-02-17T22:49:18.505Z,102553.19
2023-02-17T22:51:48.653Z,102536.53
2023-02-17T22:54:30.228Z,102540.03
2023-02-17T22:57:01.505Z,102550.56
2023-02-17T22:59:38.009Z,102546.19
2023-02-17T23:02:14.384Z,102540.03
2023-02-17T23:04:41.530Z,102532.13
2023-02-17T23:07:15.078Z,102540.03
2023-02-17T23:09:49.150Z,102535.63
2023-02-17T23:12:30.464Z,102540.91
2023-02-17T23:15:15.792Z,102525.94
2023-02-17T23:18:09.527Z,102533.00
2023-02-17T23:21:00.118Z,102525.06
2023-02-17T23:23:45.261Z,102519.84
2023-02-17T23:26:27.740Z,102519.81
2023-02-17T23:29:05.191Z,102518.94
2023-02-17T23:31:57.445Z,102516.31
2023-02-17T23:34:35.115Z,102513.69
2023-02-17T23:37:22.123Z,102518.94
2023-02-17T23:40:07.123Z,102524.22
2023-02-17T23:42:44.317Z,102524.22
2023-02-17T23:45:23.031Z,102533.88
2023-02-17T23:48:17.253Z,102533.88
2023-02-17T23:51:12.613Z,102530.34
2023-02-17T23:53:59.360Z,102533.84
2023-02-17T23:56:51.858Z,102530.34
2023-02-17T23:59:44.909Z,102532.97
